Nearby METAR Reports

 

ENRY - Rygge (nor-Afb), Norway
Distance from station: 0 24km
Updated: 02/03/2021 21:20
Clear
Clear
 Wind from SSE
Wind: SSE 9 km/h
Temperature: 1°C
Wind Chill: -2°C
Dew Point: -2°C
Humidity: 81%
Barometer: 1029 hPa
Summary: Clear
Visibility: greater than 10 km
2021/03/02 20:20 ENRY 022020Z 15005KT CAVOK 01/M02 Q1029
ENTO - Torp (civ/Nor-Af, Norway
Distance from station: W 29km
Updated: 02/03/2021 20:50
Clear
Clear
 Wind from S
Wind: S 7 km/h
Temperature: 3°C
Wind Chill: 1°C
Dew Point: -2°C
Humidity: 70%
Barometer: 1029 hPa
Summary: Clear
Visibility: greater than 10 km
2021/03/02 19:50 ENTO 021950Z 19004KT CAVOK 03/M02 Q1029 NOSIG
 
ENSN - Skien/Geiterygge, Norway
Distance from station: W 68km
Updated: 09/11/2015 09:50
NOT Current
Clear
Clear
 Wind from SSW
Wind: SSW 19 km/h, Gust: 41 km/h
Temperature: 7°C
Wind Chill: 4°C
Dew Point: 3°C
Humidity: 76%
Barometer: 1000 hPa
Summary: Clear
Visibility: greater than 10 km
2015/11/09 08:50 ENSN 090850Z 20010G22KT 150V240 CAVOK 07/03 Q1000